createdAt,value
2022-12-08T00:02:48.275Z,31.80
2022-12-08T00:06:40.538Z,27.88
2022-12-08T00:10:18.816Z,30.85
2022-12-08T00:13:44.583Z,28.23
2022-12-08T00:17:09.766Z,30.55
2022-12-08T00:20:31.882Z,25.90
2022-12-08T00:23:56.417Z,32.75
2022-12-08T00:27:18.450Z,27.20
2022-12-08T00:30:41.694Z,33.13
2022-12-08T00:34:04.200Z,26.25
2022-12-08T00:37:26.308Z,24.05
2022-12-08T00:40:48.423Z,24.98
2022-12-08T00:44:12.638Z,32.53
2022-12-08T00:47:34.656Z,27.00
2022-12-08T00:50:56.674Z,23.92
2022-12-08T00:54:18.807Z,27.75
2022-12-08T00:57:40.734Z,25.75
2022-12-08T01:01:02.788Z,25.75
2022-12-08T01:04:24.817Z,24.95
2022-12-08T01:07:49.415Z,19.70
2022-12-08T01:11:14.159Z,27.38
2022-12-08T01:14:37.305Z,28.67
2022-12-08T01:17:59.286Z,33.47
2022-12-08T01:21:21.992Z,27.95
2022-12-08T01:24:43.999Z,23.48
2022-12-08T01:28:06.049Z,25.13
2022-12-08T01:31:28.148Z,24.15
2022-12-08T01:34:50.216Z,20.20
2022-12-08T01:38:12.270Z,20.25
2022-12-08T01:41:36.307Z,18.27
2022-12-08T01:45:04.190Z,18.23
2022-12-08T01:48:27.757Z,18.65
2022-12-08T01:51:52.719Z,21.27
2022-12-08T01:55:22.133Z,21.05
2022-12-08T01:58:48.360Z,19.15
2022-12-08T02:02:11.674Z,24.23
2022-12-08T02:05:36.323Z,26.30
2022-12-08T02:09:01.787Z,30.15
2022-12-08T02:12:23.829Z,28.77
2022-12-08T02:16:03.552Z,23.80
2022-12-08T02:19:49.896Z,28.52
2022-12-08T02:23:23.193Z,24.50
2022-12-08T02:26:57.895Z,22.83
2022-12-08T02:30:19.863Z,27.63
2022-12-08T02:34:03.136Z,21.02
2022-12-08T02:37:43.167Z,23.45
2022-12-08T02:41:08.194Z,30.90
2022-12-08T02:44:31.932Z,26.50
2022-12-08T02:47:54.255Z,22.08
2022-12-08T02:51:16.280Z,25.70
2022-12-08T02:54:40.770Z,24.27
2022-12-08T02:58:22.954Z,21.17
2022-12-08T03:02:14.919Z,20.02
2022-12-08T03:05:46.164Z,20.75
2022-12-08T03:09:27.191Z,25.25
2022-12-08T03:13:12.545Z,25.25
2022-12-08T03:16:38.217Z,23.92
2022-12-08T03:20:06.569Z,23.25
2022-12-08T03:23:30.111Z,15.10
2022-12-08T03:27:15.316Z,19.75
2022-12-08T03:30:41.463Z,15.48
2022-12-08T03:34:05.708Z,16.08
2022-12-08T03:37:28.626Z,16.55
2022-12-08T03:41:10.645Z,20.58
2022-12-08T03:44:32.605Z,18.00
2022-12-08T03:47:54.574Z,26.10
2022-12-08T03:51:17.450Z,26.33
2022-12-08T03:54:39.394Z,29.92
2022-12-08T03:58:01.312Z,23.67
2022-12-08T04:01:23.961Z,29.00
2022-12-08T04:04:46.002Z,22.80
2022-12-08T04:08:08.049Z,20.30
2022-12-08T04:11:30.105Z,22.55
2022-12-08T04:14:52.065Z,22.02
2022-12-08T04:18:14.325Z,21.77
2022-12-08T04:21:36.317Z,17.60
2022-12-08T04:24:58.326Z,18.58
2022-12-08T04:28:20.714Z,14.57
2022-12-08T04:31:42.821Z,15.65
2022-12-08T04:35:05.113Z,15.32
2022-12-08T04:38:27.434Z,17.92
2022-12-08T04:41:49.449Z,15.13
2022-12-08T04:45:11.636Z,21.85
2022-12-08T04:48:33.820Z,24.92
2022-12-08T04:51:55.764Z,13.25
2022-12-08T04:55:18.026Z,23.98
2022-12-08T04:58:40.159Z,15.60
2022-12-08T05:02:02.539Z,13.32
2022-12-08T05:05:24.596Z,12.55
2022-12-08T05:08:46.647Z,21.90
2022-12-08T05:12:11.381Z,8.93
2022-12-08T05:15:33.331Z,12.18
2022-12-08T05:18:55.302Z,11.95
2022-12-08T05:22:17.446Z,11.38
2022-12-08T05:25:39.417Z,15.30
2022-12-08T05:29:01.709Z,24.73
2022-12-08T05:32:23.682Z,15.82
2022-12-08T05:35:45.678Z,13.98
2022-12-08T05:39:07.641Z,12.48
2022-12-08T05:42:29.691Z,12.35
2022-12-08T05:45:51.755Z,10.43
2022-12-08T05:49:13.768Z,11.10
2022-12-08T05:52:35.892Z,12.88
2022-12-08T05:55:57.869Z,14.10
2022-12-08T05:59:19.859Z,8.50
2022-12-08T06:02:41.886Z,15.93
2022-12-08T06:06:04.583Z,16.58
2022-12-08T06:09:26.640Z,9.35
2022-12-08T06:12:48.635Z,12.48
2022-12-08T06:16:10.664Z,12.50
2022-12-08T06:19:32.718Z,14.60
2022-12-08T06:22:55.672Z,9.63
2022-12-08T06:26:18.036Z,15.82
2022-12-08T06:29:40.938Z,11.40
2022-12-08T06:33:03.104Z,9.63
2022-12-08T06:36:27.222Z,12.52
2022-12-08T06:39:49.225Z,8.15
2022-12-08T06:43:11.260Z,9.50
2022-12-08T06:46:33.322Z,12.38
2022-12-08T06:49:55.309Z,10.88
2022-12-08T06:53:18.022Z,12.43
2022-12-08T06:56:40.064Z,12.52
2022-12-08T07:00:02.678Z,14.35
2022-12-08T07:03:25.057Z,12.60
2022-12-08T07:06:47.053Z,15.38
2022-12-08T07:10:09.298Z,16.77
2022-12-08T07:13:31.240Z,14.55
2022-12-08T07:16:53.320Z,13.60
2022-12-08T07:20:15.796Z,11.82
2022-12-08T07:23:38.500Z,11.30
2022-12-08T07:27:00.524Z,10.75
2022-12-08T07:30:22.602Z,12.07
2022-12-08T07:33:44.595Z,12.32
2022-12-08T07:37:06.545Z,8.98
2022-12-08T07:40:28.637Z,13.05
2022-12-08T07:43:51.357Z,14.25
2022-12-08T07:47:13.522Z,21.88
2022-12-08T07:50:35.579Z,15.40
2022-12-08T07:53:57.630Z,14.00
2022-12-08T07:57:19.582Z,18.25
2022-12-08T08:00:41.604Z,13.40
2022-12-08T08:04:05.377Z,14.35
2022-12-08T08:07:27.449Z,19.13
2022-12-08T08:10:49.433Z,24.83
2022-12-08T08:14:12.568Z,38.58
2022-12-08T08:17:47.182Z,21.73
2022-12-08T08:25:37.262Z,33.75
2022-12-08T08:29:02.928Z,42.30
2022-12-08T08:32:26.372Z,44.60
2022-12-08T08:35:48.560Z,42.50
2022-12-08T08:39:10.532Z,43.15
2022-12-08T08:42:32.500Z,48.88
2022-12-08T08:45:59.165Z,49.72
2022-12-08T08:49:21.485Z,62.30
2022-12-08T08:52:43.771Z,49.17
2022-12-08T08:56:13.640Z,52.50
2022-12-08T08:59:35.600Z,45.33
2022-12-08T09:02:57.633Z,42.60
2022-12-08T09:06:20.115Z,43.08
2022-12-08T09:09:42.597Z,46.72
2022-12-08T09:13:04.601Z,44.80
2022-12-08T09:16:26.688Z,44.28
2022-12-08T09:19:48.638Z,35.20
2022-12-08T09:23:10.625Z,31.85
2022-12-08T09:26:32.629Z,26.88
2022-12-08T09:29:54.633Z,31.08
2022-12-08T09:33:16.611Z,33.15
2022-12-08T09:36:38.904Z,32.95
2022-12-08T09:40:00.885Z,32.10
2022-12-08T09:43:52.779Z,30.02
2022-12-08T09:47:30.608Z,28.42
2022-12-08T09:50:57.319Z,23.35
2022-12-08T09:54:44.537Z,19.40
2022-12-08T09:58:15.966Z,13.05
2022-12-08T10:01:41.952Z,13.65
2022-12-08T10:05:04.376Z,11.13
2022-12-08T10:08:33.137Z,12.50
2022-12-08T10:12:11.378Z,12.95
2022-12-08T10:15:41.927Z,17.85
2022-12-08T10:19:19.123Z,11.50
2022-12-08T10:22:44.734Z,11.00
2022-12-08T10:26:16.647Z,21.88
2022-12-08T10:29:39.821Z,17.13
2022-12-08T10:33:01.767Z,15.43
2022-12-08T10:36:43.938Z,17.00
2022-12-08T10:40:08.815Z,16.85
2022-12-08T10:43:32.109Z,15.73
2022-12-08T10:46:54.250Z,15.95
2022-12-08T10:50:22.870Z,15.82
2022-12-08T10:53:47.218Z,15.43
2022-12-08T10:57:21.530Z,17.48
2022-12-08T11:00:43.719Z,12.38
2022-12-08T11:04:13.235Z,11.65
2022-12-08T11:07:35.225Z,17.57
2022-12-08T11:10:57.269Z,21.63
2022-12-08T11:14:22.765Z,18.95
2022-12-08T11:17:48.708Z,21.08
2022-12-08T11:21:19.670Z,23.65
2022-12-08T11:24:41.729Z,24.05
2022-12-08T11:28:10.033Z,22.60
2022-12-08T11:31:39.884Z,25.42
2022-12-08T11:35:05.543Z,25.25
2022-12-08T11:38:28.710Z,26.95
2022-12-08T11:41:53.549Z,21.27
2022-12-08T11:45:37.017Z,19.73
2022-12-08T11:49:06.970Z,25.02
2022-12-08T11:52:35.156Z,21.77
2022-12-08T11:56:10.308Z,24.20
2022-12-08T11:59:46.176Z,26.38
2022-12-08T12:03:30.014Z,20.33
2022-12-08T12:07:07.407Z,22.05
2022-12-08T12:11:07.721Z,25.25
2022-12-08T12:14:58.621Z,18.40
2022-12-08T12:18:23.591Z,15.95
2022-12-08T12:21:53.787Z,12.80
2022-12-08T12:29:00.636Z,11.40
2022-12-08T12:32:23.399Z,11.70
2022-12-08T12:35:48.352Z,9.30
2022-12-08T12:39:13.178Z,10.55
2022-12-08T12:42:47.345Z,10.25
2022-12-08T12:46:24.568Z,10.23
2022-12-08T12:49:48.715Z,9.73
2022-12-08T12:53:16.733Z,8.98
2022-12-08T12:56:55.014Z,7.70
2022-12-08T13:00:22.712Z,8.00
2022-12-08T13:04:03.483Z,8.25
2022-12-08T13:11:10.266Z,6.80
2022-12-08T13:14:38.529Z,7.63
2022-12-08T13:18:00.592Z,6.10
2022-12-08T13:21:25.179Z,9.50
2022-12-08T13:24:47.261Z,9.68
2022-12-08T13:28:24.136Z,7.38
2022-12-08T13:32:00.320Z,9.20
2022-12-08T13:35:24.687Z,8.40
2022-12-08T13:38:48.185Z,9.70
2022-12-08T13:42:13.073Z,9.90
2022-12-08T13:46:41.914Z,7.40
2022-12-08T13:51:07.037Z,6.85
2022-12-08T13:57:33.770Z,23.77
2022-12-08T14:01:18.963Z,6.28
2022-12-08T14:05:16.837Z,6.45
2022-12-08T14:08:59.303Z,7.82
2022-12-08T14:12:31.895Z,7.15
2022-12-08T14:15:54.203Z,11.18
2022-12-08T14:19:19.843Z,6.70
2022-12-08T14:22:42.277Z,7.18
2022-12-08T14:26:06.072Z,8.25
2022-12-08T14:29:44.934Z,9.73
2022-12-08T14:33:16.973Z,11.63
2022-12-08T14:36:39.202Z,12.45
2022-12-08T14:40:10.424Z,10.23
2022-12-08T14:43:32.603Z,15.45
2022-12-08T14:47:10.761Z,22.40
2022-12-08T14:50:40.224Z,28.02
2022-12-08T14:54:18.884Z,30.67
2022-12-08T14:57:40.989Z,31.98
2022-12-08T15:01:07.014Z,26.38
2022-12-08T15:04:29.321Z,29.23
2022-12-08T15:07:54.453Z,24.30
2022-12-08T15:11:30.334Z,24.55
2022-12-08T15:15:10.382Z,28.45
2022-12-08T15:18:40.652Z,28.58
2022-12-08T15:22:21.705Z,24.75
2022-12-08T15:25:44.106Z,25.73
2022-12-08T15:29:21.436Z,28.65
2022-12-08T15:32:44.220Z,31.30
2022-12-08T15:36:06.623Z,29.15
2022-12-08T15:39:35.759Z,28.65
2022-12-08T15:42:57.759Z,26.23
2022-12-08T15:46:19.749Z,25.48
2022-12-08T15:49:41.928Z,34.47
2022-12-08T15:53:04.021Z,27.10
2022-12-08T15:56:27.768Z,31.58
2022-12-08T15:59:50.863Z,33.13
2022-12-08T16:07:21.225Z,42.33
2022-12-08T16:11:24.281Z,39.38
2022-12-08T16:15:39.759Z,44.35
2022-12-08T16:18:24.408Z,56.45
2022-12-08T16:25:46.181Z,46.95
2022-12-08T16:29:25.019Z,54.92
2022-12-08T16:32:47.666Z,47.28
2022-12-08T16:36:12.152Z,73.63
2022-12-08T16:39:36.922Z,62.30
2022-12-08T16:43:01.347Z,50.65
2022-12-08T16:46:31.559Z,52.55
2022-12-08T16:49:54.435Z,243.93
2022-12-08T16:53:17.845Z,63.78
2022-12-08T16:56:40.339Z,54.75
2022-12-08T17:00:09.018Z,49.03
2022-12-08T17:03:32.635Z,45.05
2022-12-08T17:07:00.073Z,44.28
2022-12-08T17:10:25.618Z,48.58
2022-12-08T17:13:48.187Z,45.40
2022-12-08T17:17:11.262Z,50.22
2022-12-08T17:20:38.357Z,46.97
2022-12-08T17:24:01.179Z,53.25
2022-12-08T17:27:23.789Z,55.13
2022-12-08T17:30:50.076Z,52.03
2022-12-08T17:34:15.660Z,45.35
2022-12-08T17:37:38.333Z,53.10
2022-12-08T17:41:06.395Z,58.30
2022-12-08T17:44:35.512Z,61.30
2022-12-08T17:47:58.266Z,49.47
2022-12-08T17:51:21.238Z,53.72
2022-12-08T17:54:43.743Z,50.22
2022-12-08T17:58:07.066Z,55.42
2022-12-08T18:01:30.008Z,54.40
2022-12-08T18:04:52.914Z,59.40
2022-12-08T18:08:16.228Z,47.67
2022-12-08T18:11:39.087Z,56.42
2022-12-08T18:15:01.628Z,54.33
2022-12-08T18:18:24.386Z,59.88
2022-12-08T18:21:47.851Z,58.95
2022-12-08T18:25:14.836Z,57.97
2022-12-08T18:28:37.993Z,61.38
2022-12-08T18:32:02.291Z,57.10
2022-12-08T18:35:24.528Z,57.80
2022-12-08T18:38:50.397Z,58.13
2022-12-08T18:42:26.185Z,56.70
2022-12-08T18:45:49.159Z,54.45
2022-12-08T18:49:13.147Z,60.60
2022-12-08T18:52:35.712Z,58.25
2022-12-08T18:55:58.301Z,47.85
2022-12-08T18:59:22.858Z,62.30
2022-12-08T19:02:46.003Z,50.25
2022-12-08T19:06:09.191Z,53.92
2022-12-08T19:09:32.049Z,61.13
2022-12-08T19:12:58.154Z,54.42
2022-12-08T19:16:21.735Z,52.88
2022-12-08T19:19:43.977Z,54.17
2022-12-08T19:23:07.908Z,57.30
2022-12-08T19:26:30.703Z,54.28
2022-12-08T19:29:53.416Z,53.38
2022-12-08T19:33:17.521Z,54.88
2022-12-08T19:36:44.387Z,56.15
2022-12-08T19:40:26.560Z,60.60
2022-12-08T19:44:10.969Z,55.53
2022-12-08T19:47:33.679Z,59.45
2022-12-08T19:50:56.870Z,49.85
2022-12-08T19:54:22.639Z,59.55
2022-12-08T19:57:45.770Z,53.42
2022-12-08T20:01:08.692Z,54.03
2022-12-08T20:04:32.750Z,58.13
2022-12-08T20:07:56.506Z,53.92
2022-12-08T20:11:20.312Z,59.60
2022-12-08T20:14:46.403Z,64.07
2022-12-08T20:18:10.566Z,60.58
2022-12-08T20:21:33.421Z,65.80
2022-12-08T20:24:59.568Z,73.63
2022-12-08T20:28:23.639Z,66.93
2022-12-08T20:31:46.605Z,71.00
2022-12-08T20:35:11.036Z,67.20
2022-12-08T20:38:34.153Z,56.75
2022-12-08T20:41:57.083Z,68.88
2022-12-08T20:45:35.807Z,67.50
2022-12-08T20:49:07.994Z,64.13
2022-12-08T20:52:30.432Z,70.78
2022-12-08T20:55:53.300Z,73.43
2022-12-08T20:59:17.762Z,71.30
2022-12-08T21:02:46.886Z,63.83
2022-12-08T21:06:15.259Z,75.68
2022-12-08T21:09:38.211Z,67.32
2022-12-08T21:13:02.527Z,62.70
2022-12-08T21:16:25.617Z,70.80
2022-12-08T21:19:48.512Z,78.35
2022-12-08T21:23:12.055Z,67.18
2022-12-08T21:26:34.845Z,61.30
2022-12-08T21:29:57.419Z,61.67
2022-12-08T21:33:19.970Z,63.10
2022-12-08T21:36:43.488Z,56.15
2022-12-08T21:40:08.716Z,59.97
2022-12-08T21:43:33.535Z,58.00
2022-12-08T21:46:59.527Z,59.45
2022-12-08T21:50:26.306Z,58.03
2022-12-08T21:53:58.646Z,53.13
2022-12-08T21:57:22.174Z,58.38
2022-12-08T22:00:44.489Z,52.95
2022-12-08T22:04:06.963Z,52.22
2022-12-08T22:07:29.305Z,56.25
2022-12-08T22:10:51.469Z,49.72
2022-12-08T22:14:15.134Z,59.63
2022-12-08T22:17:39.963Z,58.75
2022-12-08T22:21:03.974Z,55.05
2022-12-08T22:24:26.363Z,66.05
2022-12-08T22:27:48.662Z,49.08
2022-12-08T22:31:19.433Z,67.40
2022-12-08T22:34:41.631Z,65.75
2022-12-08T22:38:03.805Z,57.35
2022-12-08T22:41:25.795Z,62.80
2022-12-08T22:44:47.807Z,76.78
2022-12-08T22:48:10.065Z,53.95
2022-12-08T22:51:32.095Z,69.60
2022-12-08T22:54:54.237Z,61.75
2022-12-08T22:58:16.323Z,59.10
2022-12-08T23:01:38.412Z,71.80
2022-12-08T23:05:00.651Z,63.58
2022-12-08T23:08:23.703Z,58.55
2022-12-08T23:11:45.875Z,58.15
2022-12-08T23:15:08.395Z,60.05
2022-12-08T23:18:30.416Z,56.45
2022-12-08T23:21:52.586Z,64.78
2022-12-08T23:25:16.215Z,57.92
2022-12-08T23:28:38.379Z,53.20
2022-12-08T23:32:00.519Z,59.60
2022-12-08T23:35:23.153Z,50.22
2022-12-08T23:38:45.657Z,53.20
2022-12-08T23:42:07.862Z,51.78
2022-12-08T23:45:30.199Z,50.42
2022-12-08T23:48:52.351Z,51.67
2022-12-08T23:52:14.793Z,53.53
2022-12-08T23:55:37.128Z,58.22
2022-12-08T23:59:01.185Z,53.65
